Time;durP1;ratioP1;P1;durP2;ratioP2;P2;SDS_P1;SDS_P2;PMS_P1;PMS_P2;Temp;Humidity;BMP_temperature;BMP_pressure;BME280_temperature;BME280_humidity;BME280_pressure;Samples;Min_cycle;Max_cycle;Signal;HPM_P1;HPM_P2
2022/11/29 00:01:11;;;;;;;20.23;12.20;;;;;;;1.64;81.66;102262.72;1781862;80;21134;-89
2022/11/29 00:03:37;;;;;;;20.25;10.43;;;;;;;1.60;81.27;102259.28;1780055;79;21345;-89
2022/11/29 00:06:07;;;;;;;21.90;9.70;;;;;;;1.58;81.50;102263.98;1781648;80;20926;-88
2022/11/29 00:08:34;;;;;;;16.55;9.00;;;;;;;1.50;81.15;102252.77;1778793;80;21045;-88
2022/11/29 00:11:10;;;;;;;14.55;10.28;;;;;;;1.41;81.33;102253.16;1783401;79;21113;-87
2022/11/29 00:13:37;;;;;;;17.10;10.70;;;;;;;1.39;81.66;102257.45;1772925;79;21516;-88
2022/11/29 00:16:09;;;;;;;17.82;10.80;;;;;;;1.40;81.82;102254.42;1780797;79;21451;-87
2022/11/29 00:18:36;;;;;;;13.83;9.78;;;;;;;1.43;81.96;102255.75;1780885;80;20875;-85
2022/11/29 00:21:07;;;;;;;27.58;11.45;;;;;;;1.48;81.72;102256.63;1781308;80;22455;-88
2022/11/29 00:23:34;;;;;;;15.08;9.20;;;;;;;1.49;81.68;102260.06;1785378;80;20902;-86
2022/11/29 00:26:05;;;;;;;17.20;10.10;;;;;;;1.50;81.47;102261.81;1780077;80;21552;-88
2022/11/29 00:28:33;;;;;;;14.73;10.20;;;;;;;1.47;81.31;102260.48;1783053;80;20954;-86
2022/11/29 00:31:00;;;;;;;14.43;9.05;;;;;;;1.41;81.19;102259.62;1779575;80;21017;-88
2022/11/29 00:33:27;;;;;;;15.28;9.45;;;;;;;1.37;81.27;102267.35;1781862;80;20911;-86
2022/11/29 00:35:53;;;;;;;15.30;9.90;;;;;;;1.33;81.30;102253.97;1777950;80;20916;-86
2022/11/29 00:38:20;;;;;;;14.73;9.15;;;;;;;1.28;81.16;102265.58;1778241;80;21243;-88
2022/11/29 00:40:51;;;;;;;21.15;10.38;;;;;;;1.26;81.27;102252.22;1780236;80;20872;-88
2022/11/29 00:43:18;;;;;;;16.05;9.38;;;;;;;1.21;81.34;102249.62;1783016;80;20990;-88
2022/11/29 00:45:44;;;;;;;12.88;9.55;;;;;;;1.21;81.43;102237.99;1780522;80;20912;-86
2022/11/29 00:48:11;;;;;;;19.42;11.63;;;;;;;1.21;81.60;102252.20;1781834;80;20966;-88
2022/11/29 00:50:37;;;;;;;12.47;9.40;;;;;;;1.19;81.57;102255.20;1783098;80;21233;-88
2022/11/29 00:53:04;;;;;;;19.23;10.00;;;;;;;1.20;81.65;102258.21;1780634;80;20928;-88
2022/11/29 00:55:30;;;;;;;15.95;10.23;;;;;;;1.19;81.66;102256.06;1785067;79;20868;-86
2022/11/29 01:04:14;;;;;;;18.52;8.90;;;;;;;1.24;81.69;102263.83;1741282;81;21494;-92
2022/11/29 01:06:44;;;;;;;18.85;9.88;;;;;;;1.26;81.78;102266.00;1721468;81;20903;-90
2022/11/29 01:09:13;;;;;;;16.35;9.73;;;;;;;1.28;81.72;102263.44;1738522;81;20902;-91
2022/11/29 01:11:43;;;;;;;25.08;11.38;;;;;;;1.29;81.70;102267.73;1719401;81;20946;-90
2022/11/29 01:14:10;;;;;;;15.60;8.38;;;;;;;1.28;81.77;102264.29;1688927;83;21895;-93
2022/11/29 01:16:37;;;;;;;15.18;9.25;;;;;;;1.29;81.86;102262.16;1758265;80;21123;-91
2022/11/29 01:19:03;;;;;;;17.12;9.65;;;;;;;1.28;81.95;102254.39;1754471;81;20978;-91
2022/11/29 01:21:30;;;;;;;16.87;9.60;;;;;;;1.27;82.03;102250.06;1757032;80;20896;-90
2022/11/29 01:24:01;;;;;;;14.98;10.38;;;;;;;1.23;82.20;102246.18;1765075;81;20999;-91
2022/11/29 01:26:33;;;;;;;15.95;9.80;;;;;;;1.22;82.27;102242.28;1746822;81;20892;-90
2022/11/29 01:29:03;;;;;;;16.60;9.25;;;;;;;1.22;82.58;102244.88;1743392;81;21194;-90
2022/11/29 01:31:35;;;;;;;17.45;11.18;;;;;;;1.23;82.38;102240.16;1746051;81;21017;-91
2022/11/29 01:34:02;;;;;;;19.70;10.00;;;;;;;1.21;82.48;102249.19;1745108;81;20923;-91
2022/11/29 01:36:30;;;;;;;17.17;8.63;;;;;;;1.23;82.50;102248.77;1753800;81;20939;-91
2022/11/29 01:38:59;;;;;;;9.90;7.83;;;;;;;1.27;82.56;102250.95;1759547;81;20899;-90
2022/11/29 01:41:28;;;;;;;15.18;9.58;;;;;;;1.27;82.22;102256.12;1761029;81;21132;-91
2022/11/29 01:44:12;;;;;;;14.00;8.45;;;;;;;1.23;82.19;102247.47;1746308;81;21038;-90
2022/11/29 01:46:42;;;;;;;15.63;8.55;;;;;;;1.19;82.37;102253.48;1757084;81;20895;-92
2022/11/29 01:49:19;;;;;;;14.50;9.98;;;;;;;1.19;82.45;102261.23;1723177;81;21451;-92
2022/11/29 01:52:14;;;;;;;12.93;8.43;;;;;;;1.22;82.68;102261.67;1757295;81;20943;-93
2022/11/29 01:54:44;;;;;;;16.33;9.47;;;;;;;1.22;82.82;102264.25;1764841;80;21365;-93
2022/11/29 01:57:12;;;;;;;16.90;9.50;;;;;;;1.22;82.99;102259.97;1762836;80;20954;-88
2022/11/29 01:59:42;;;;;;;18.57;10.48;;;;;;;1.25;82.88;102260.41;1728675;81;20961;-92
2022/11/29 02:02:14;;;;;;;13.03;9.23;;;;;;;1.21;82.89;102254.35;1749113;81;20978;-90
2022/11/29 02:04:44;;;;;;;15.25;9.33;;;;;;;1.17;83.04;102248.73;1745074;80;20995;-91
2022/11/29 02:07:10;;;;;;;13.80;9.33;;;;;;;1.17;83.18;102248.73;1759858;80;21124;-91
2022/11/29 02:09:37;;;;;;;14.63;9.10;;;;;;;1.18;83.11;102253.49;1749066;81;20959;-88
2022/11/29 02:12:29;;;;;;;15.83;8.73;;;;;;;1.17;82.80;102263.38;1761436;81;20958;-90
2022/11/29 02:15:27;;;;;;;12.88;7.83;;;;;;;1.16;82.82;102261.22;1737415;81;21069;-91
2022/11/29 02:18:04;;;;;;;15.20;9.50;;;;;;;1.15;82.94;102269.81;1761955;81;20930;-90
2022/11/29 02:21:24;;;;;;;15.03;10.20;;;;;;;1.13;82.92;102265.06;1750767;81;21223;-92
2022/11/29 02:24:28;;;;;;;16.20;9.35;;;;;;;1.13;82.93;102266.35;1737281;81;20871;-91
2022/11/29 02:30:59;;;;;;;13.35;8.45;;;;;;;1.19;83.15;102257.78;1649214;82;21919;-89
2022/11/29 02:33:59;;;;;;;13.10;8.55;;;;;;;1.16;83.17;102249.59;1669276;85;21021;-89
2022/11/29 02:36:46;;;;;;;11.85;8.10;;;;;;;1.14;83.65;102246.14;1647649;84;21885;-89
2022/11/29 02:39:38;;;;;;;13.60;8.35;;;;;;;1.14;83.90;102238.82;1684991;84;20960;-89
2022/11/29 02:42:47;;;;;;;13.40;9.08;;;;;;;1.19;84.21;102252.62;1651362;85;20972;-89
2022/11/29 02:45:58;;;;;;;13.90;8.03;;;;;;;1.15;83.99;102249.14;1676528;83;21001;-89
2022/11/29 02:48:51;;;;;;;15.70;8.65;;;;;;;1.07;84.29;102239.22;1683860;84;20919;-89
2022/11/29 02:52:00;;;;;;;9.85;7.85;;;;;;;1.08;84.77;102236.20;1662126;83;21048;-88
2022/11/29 02:55:00;;;;;;;10.35;7.75;;;;;;;1.03;84.71;102227.13;1675534;83;21040;-91
2022/11/29 02:57:41;;;;;;;13.98;7.62;;;;;;;1.02;84.72;102231.84;1677811;83;21035;-88
2022/11/29 03:00:18;;;;;;;12.70;8.75;;;;;;;0.95;84.49;102228.36;1658422;83;20987;-88
2022/11/29 03:03:18;;;;;;;14.13;8.65;;;;;;;0.90;84.64;102225.34;1671905;83;20972;-90
2022/11/29 03:05:53;;;;;;;15.58;8.65;;;;;;;0.89;84.80;102228.75;1634188;84;21126;-85
2022/11/29 03:08:28;;;;;;;13.18;8.68;;;;;;;0.88;85.06;102228.34;1676179;83;21042;-90
2022/11/29 03:11:37;;;;;;;12.78;8.05;;;;;;;0.90;85.16;102231.80;1643936;83;21378;-88
2022/11/29 03:14:27;;;;;;;10.03;8.75;;;;;;;0.89;85.23;102228.36;1667213;83;21003;-90
2022/11/29 03:17:36;;;;;;;14.73;8.90;;;;;;;0.96;85.25;102237.86;1665842;84;21010;-88
2022/11/29 03:20:13;;;;;;;15.45;9.75;;;;;;;0.99;85.08;102233.13;1679323;84;21113;-88
2022/11/29 03:23:07;;;;;;;12.70;7.67;;;;;;;0.96;85.21;102234.42;1679966;83;21412;-86
2022/11/29 03:25:40;;;;;;;13.35;9.43;;;;;;;0.98;85.36;102238.73;1688766;83;21962;-87
2022/11/29 03:28:29;;;;;;;19.40;10.35;;;;;;;0.95;85.22;102233.53;1667166;84;21086;-87
2022/11/29 03:31:22;;;;;;;12.45;8.78;;;;;;;0.94;85.44;102236.98;1680936;83;20994;-86
2022/11/29 03:34:09;;;;;;;13.48;9.15;;;;;;;0.95;85.52;102237.84;1667691;84;21188;-87
2022/11/29 03:36:56;;;;;;;20.70;10.82;;;;;;;0.97;85.13;102241.30;1674735;83;20932;-86
2022/11/29 03:39:51;;;;;;;15.40;10.13;;;;;;;0.92;85.03;102242.56;1677569;83;21063;-88
2022/11/29 03:42:29;;;;;;;14.83;10.48;;;;;;;0.90;84.99;102247.29;1680101;83;20919;-87
2022/11/29 03:45:04;;;;;;;13.55;10.23;;;;;;;0.89;85.05;102249.42;1661450;84;21008;-90
2022/11/29 03:47:37;;;;;;;13.80;10.82;;;;;;;0.88;84.99;102251.58;1638647;86;21274;-89
2022/11/29 03:50:13;;;;;;;13.03;9.28;;;;;;;0.92;85.09;102252.04;1665446;84;20934;-89
2022/11/29 03:53:00;;;;;;;10.18;8.73;;;;;;;0.99;85.11;102253.36;1671323;84;21557;-89
2022/11/29 03:55:52;;;;;;;14.63;9.20;;;;;;;1.07;84.92;102263.77;1643713;85;21132;-88
2022/11/29 03:58:50;;;;;;;14.78;9.03;;;;;;;1.09;84.60;102267.22;1648366;86;21029;-87
2022/11/29 04:02:06;;;;;;;11.22;8.43;;;;;;;1.12;84.31;102274.12;1622257;86;21335;-88
2022/11/29 04:05:12;;;;;;;15.13;9.03;;;;;;;1.05;84.06;102268.48;1640027;86;20927;-89
2022/11/29 04:07:56;;;;;;;14.78;8.70;;;;;;;1.05;84.40;102265.47;1647003;85;20968;-90
2022/11/29 11:04:36;;;;;;;7.15;3.65;;;;;;;2.99;63.03;102254.20;1802170;79;21373;-88
2022/11/29 11:07:04;;;;;;;10.43;3.55;;;;;;;2.98;62.70;102259.82;1795546;79;21035;-91
2022/11/29 11:09:39;;;;;;;8.95;3.58;;;;;;;2.94;62.63;102262.42;1799252;78;20967;-88
2022/11/29 11:12:17;;;;;;;9.33;4.10;;;;;;;2.83;62.75;102253.37;1794310;79;21136;-88
2022/11/29 11:14:43;;;;;;;8.50;4.33;;;;;;;2.76;62.97;102247.33;1795121;79;21059;-86
2022/11/29 11:17:31;;;;;;;6.45;4.33;;;;;;;2.76;63.22;102242.56;1804127;79;20948;-89
2022/11/29 11:20:00;;;;;;;10.23;4.37;;;;;;;2.75;63.40;102234.38;1800441;79;21005;-89
2022/11/29 11:22:28;;;;;;;7.17;4.15;;;;;;;2.78;63.39;102238.24;1792391;79;21066;-85
2022/11/29 11:25:03;;;;;;;8.15;3.58;;;;;;;2.81;62.99;102218.83;1798572;79;21809;-88
2022/11/29 11:27:33;;;;;;;9.20;3.90;;;;;;;2.82;63.03;102231.75;1803436;79;20904;-91
2022/11/29 11:29:59;;;;;;;8.00;3.83;;;;;;;2.84;62.98;102217.52;1791363;79;21034;-88
2022/11/29 11:32:26;;;;;;;7.42;4.22;;;;;;;2.82;62.64;102208.88;1792630;79;21598;-87
2022/11/29 11:34:58;;;;;;;7.65;4.42;;;;;;;2.83;62.31;102209.33;1798137;79;20965;-91
2022/11/29 11:37:34;;;;;;;9.23;3.65;;;;;;;2.81;61.96;102182.11;1788832;79;21895;-89
2022/11/29 11:40:25;;;;;;;20.05;8.48;;;;;;;2.74;62.02;102198.98;1789862;79;21057;-87
2022/11/29 11:42:53;;;;;;;10.48;5.53;;;;;;;2.69;62.42;102193.78;1793481;79;21505;-87
2022/11/29 11:45:30;;;;;;;13.68;6.30;;;;;;;2.66;62.04;102202.42;1794620;79;20951;-88
2022/11/29 11:48:04;;;;;;;9.70;4.97;;;;;;;2.61;62.10;102200.29;1795964;79;20888;-89
2022/11/29 11:50:39;;;;;;;6.85;3.80;;;;;;;2.54;62.07;102207.64;1800328;79;21154;-86
2022/11/29 11:53:25;;;;;;;11.43;5.50;;;;;;;2.51;62.29;102218.42;1802030;79;20948;-87
2022/11/29 11:56:05;;;;;;;8.33;3.70;;;;;;;2.52;62.57;102213.69;1798015;78;20954;-87
2022/11/29 11:58:39;;;;;;;10.35;4.28;;;;;;;2.61;62.63;102230.51;1791157;79;21004;-88
2022/11/29 12:01:36;;;;;;;8.73;3.50;;;;;;;2.68;62.53;102236.96;1763270;79;20888;-88
2022/11/29 12:04:22;;;;;;;6.90;3.58;;;;;;;2.71;61.91;102234.80;1803625;79;21665;-88
2022/11/29 12:07:01;;;;;;;6.25;3.83;;;;;;;2.74;61.75;102220.56;1795752;79;20955;-89
2022/11/29 12:09:54;;;;;;;6.55;3.87;;;;;;;2.74;61.89;102220.56;1804726;79;20897;-89
2022/11/29 12:12:36;;;;;;;5.60;3.50;;;;;;;2.74;61.96;102219.27;1800926;79;20981;-88
2022/11/29 12:15:20;;;;;;;8.80;3.62;;;;;;;2.74;62.45;102215.82;1798478;79;21117;-88
2022/11/29 12:18:04;;;;;;;5.55;3.30;;;;;;;2.80;62.09;102218.38;1778565;79;21124;-88
2022/11/29 12:21:08;;;;;;;6.03;3.30;;;;;;;2.78;61.78;102209.34;1785238;78;20905;-89
2022/11/29 12:23:51;;;;;;;4.85;2.80;;;;;;;2.72;61.11;102205.45;1796643;79;20940;-88
2022/11/29 12:26:25;;;;;;;6.58;4.35;;;;;;;2.64;61.14;102221.43;1796217;79;20904;-90
2022/11/29 12:28:52;;;;;;;6.15;3.27;;;;;;;2.55;61.01;102214.53;1805841;79;20889;-88
2022/11/29 12:31:55;;;;;;;7.72;4.83;;;;;;;2.52;61.26;102215.84;1805091;79;21375;-89
2022/11/29 12:34:46;;;;;;;7.67;3.60;;;;;;;2.52;61.28;102221.45;1803881;79;20924;-90
2022/11/29 12:37:36;;;;;;;9.18;3.45;;;;;;;2.48;60.99;102209.78;1800920;79;20982;-84
2022/11/29 12:40:21;;;;;;;9.50;4.33;;;;;;;2.40;60.81;102221.02;1795596;79;21025;-91
2022/11/29 12:43:14;;;;;;;11.53;3.50;;;;;;;2.34;61.00;102202.91;1799465;79;20923;-90
2022/11/29 12:45:55;;;;;;;6.67;3.10;;;;;;;2.34;61.37;102216.72;1797062;79;21541;-89
2022/11/29 12:48:52;;;;;;;45.75;21.95;;;;;;;2.36;61.11;102218.88;1800343;79;21045;-87
2022/11/29 12:51:42;;;;;;;12.88;5.17;;;;;;;2.34;61.03;102219.74;1799384;79;21041;-88
2022/11/29 12:54:35;;;;;;;17.55;10.25;;;;;;;2.25;61.29;102220.16;1764989;79;20971;-88
2022/11/29 12:57:08;;;;;;;6.85;3.83;;;;;;;2.24;61.62;102224.03;1802464;79;20884;-89
2022/11/29 13:00:08;;;;;;;7.97;4.53;;;;;;;2.21;61.50;102233.10;1803098;78;21476;-88
2022/11/29 13:02:56;;;;;;;9.73;5.28;;;;;;;2.20;61.32;102227.07;1800634;78;21025;-86
2022/11/29 13:05:55;;;;;;;7.65;3.52;;;;;;;2.19;61.36;102226.63;1771667;79;21619;-89
2022/11/29 13:08:37;;;;;;;9.00;3.02;;;;;;;2.19;61.31;102229.20;1805119;79;21083;-89
2022/11/29 13:11:13;;;;;;;4.95;3.45;;;;;;;2.18;61.11;102224.02;1805007;79;21019;-88
2022/11/29 13:13:54;;;;;;;7.35;3.08;;;;;;;2.16;60.84;102224.48;1795478;79;21485;-90
2022/11/29 13:16:35;;;;;;;6.12;3.60;;;;;;;2.13;61.11;102231.78;1801813;79;20934;-89
2022/11/29 13:19:27;;;;;;;7.83;4.35;;;;;;;2.11;61.30;102227.47;1806131;79;20991;-90
2022/11/29 13:22:16;;;;;;;8.78;3.92;;;;;;;2.09;61.09;102227.49;1796162;78;21000;-88
2022/11/29 13:25:01;;;;;;;8.30;3.55;;;;;;;2.06;61.02;102230.06;1796123;79;21093;-91
2022/11/29 13:27:35;;;;;;;6.45;3.65;;;;;;;2.02;60.39;102229.21;1791791;79;21160;-90
2022/11/29 13:30:04;;;;;;;7.92;3.70;;;;;;;2.03;60.24;102237.39;1798877;79;21030;-89
2022/11/29 13:32:36;;;;;;;14.68;4.00;;;;;;;1.98;60.12;102233.05;1794942;78;20948;-90
2022/11/29 19:33:19;;;;;;;12.93;5.78;;;;;;;-0.68;64.36;102290.44;1669041;84;20972;-88
2022/11/29 19:35:47;;;;;;;11.20;6.03;;;;;;;-0.68;64.45;102313.20;1643877;86;21160;-87
2022/11/29 19:38:15;;;;;;;12.43;5.87;;;;;;;-0.67;64.57;102293.44;1615724;86;20953;-88
2022/11/29 19:40:42;;;;;;;11.80;6.15;;;;;;;-0.67;64.48;102299.48;1630894;85;20879;-89
2022/11/29 19:43:09;;;;;;;15.23;5.78;;;;;;;-0.70;64.76;102294.70;1625808;86;21014;-89
2022/11/29 19:45:39;;;;;;;18.25;6.47;;;;;;;-0.73;64.55;102295.96;1625899;86;21022;-89
2022/11/29 19:48:05;;;;;;;12.18;6.62;;;;;;;-0.75;64.66;102310.53;1627833;86;21179;-88
2022/11/29 19:50:32;;;;;;;14.28;6.53;;;;;;;-0.80;64.63;102293.72;1626728;85;21119;-89
2022/11/29 19:52:59;;;;;;;13.15;5.83;;;;;;;-0.80;64.40;102300.55;1632790;85;20936;-87
2022/11/29 19:55:26;;;;;;;13.60;7.10;;;;;;;-0.80;64.70;102301.84;1635838;85;21015;-87
2022/11/29 19:58:01;;;;;;;11.15;6.53;;;;;;;-0.80;64.82;102305.31;1635491;85;20908;-90
2022/11/29 20:00:24;;;;;;;11.63;5.72;;;;;;;-0.79;64.69;102303.16;1629556;85;21180;-89
2022/11/29 20:02:51;;;;;;;15.10;5.85;;;;;;;-0.81;64.51;102307.42;1636173;85;21042;-90
2022/11/29 20:05:17;;;;;;;10.70;5.58;;;;;;;-0.85;64.56;102305.22;1612245;86;21136;-87
2022/11/29 20:07:45;;;;;;;13.13;6.25;;;;;;;-0.86;64.57;102316.80;1636143;86;21757;-86
2022/11/29 20:10:14;;;;;;;10.82;6.12;;;;;;;-0.88;64.45;102304.33;1659519;83;20947;-91
2022/11/29 20:12:44;;;;;;;9.90;5.33;;;;;;;-0.88;64.65;102312.91;1664265;84;21321;-89
2022/11/29 20:15:10;;;;;;;13.08;6.62;;;;;;;-0.91;64.73;102307.73;1670411;84;21350;-88
2022/11/29 20:17:37;;;;;;;13.05;5.67;;;;;;;-0.90;64.87;102311.16;1644695;85;20971;-88
2022/11/29 20:20:05;;;;;;;9.70;5.25;;;;;;;-0.90;65.03;102306.02;1640289;85;20968;-88
2022/11/29 20:22:33;;;;;;;18.17;7.53;;;;;;;-0.88;65.08;102301.75;1670814;84;21003;-89
2022/11/29 20:24:59;;;;;;;11.60;6.40;;;;;;;-0.89;65.02;102315.45;1662578;84;21069;-87
2022/11/29 20:27:28;;;;;;;12.95;7.28;;;;;;;-0.93;65.01;102318.42;1669687;84;20944;-89
2022/11/29 20:29:55;;;;;;;17.10;7.22;;;;;;;-0.96;65.21;102315.78;1635953;84;21002;-87
2022/11/29 20:32:22;;;;;;;12.15;5.95;;;;;;;-0.99;65.29;102327.34;1628585;86;20944;-86
2022/11/29 20:34:52;;;;;;;12.37;6.17;;;;;;;-0.99;65.26;102318.75;1639683;86;20948;-88
2022/11/29 20:38:07;;;;;;;11.40;5.47;;;;;;;-1.01;65.34;102333.31;1651225;85;21420;-90
2022/11/29 20:40:44;;;;;;;12.80;5.97;;;;;;;-1.05;65.47;102324.23;1672394;84;20932;-88
2022/11/29 20:43:19;;;;;;;10.48;5.37;;;;;;;-1.06;65.50;102325.52;1631958;86;21031;-89
2022/11/29 20:45:46;;;;;;;;;;;;;;;-1.08;65.70;102334.92;1631013;86;20968;-89
2022/11/29 20:48:20;;;;;;;11.63;6.00;;;;;;;-1.10;65.81;102345.61;1616916;86;20081;-90
2022/11/29 20:50:59;;;;;;;13.55;6.97;;;;;;;-1.12;65.92;102331.42;1626054;85;21233;-88
2022/11/29 20:53:39;;;;;;;9.65;5.10;;;;;;;-1.09;65.90;102330.59;1618498;86;20999;-90
2022/11/29 20:56:08;;;;;;;10.95;5.92;;;;;;;-1.09;65.81;102353.37;1617648;86;21031;-91
2022/11/29 20:58:36;;;;;;;12.95;7.00;;;;;;;-1.08;65.96;102344.79;1616296;85;21879;-90
2022/11/29 21:01:03;;;;;;;11.57;6.17;;;;;;;-1.04;66.01;102344.43;1616816;86;21488;-89
2022/11/29 21:03:29;;;;;;;11.22;6.58;;;;;;;-1.02;65.84;102347.90;1617030;85;21900;-89
2022/11/29 21:06:00;;;;;;;11.65;5.75;;;;;;;-1.03;65.59;102347.86;1619247;86;20979;-89
2022/11/29 21:08:25;;;;;;;11.30;6.15;;;;;;;-1.06;65.63;102342.25;1624360;85;20943;-86
2022/11/29 21:10:55;;;;;;;12.07;5.83;;;;;;;-1.07;65.65;102343.97;1613921;86;21080;-89
2022/11/29 21:15:44;;;;;;;14.15;5.85;;;;;;;-1.06;65.70;102331.95;1884921;75;22465;-90
2022/11/29 21:18:22;;;;;;;10.50;5.47;;;;;;;-1.13;65.79;102332.70;1831968;77;21365;-91
2022/11/29 23:26:18;;;;;;;9.58;4.47;;;;;;;-1.69;68.13;102297.43;1828832;76;21408;-87
2022/11/29 23:28:47;;;;;;;11.55;5.08;;;;;;;-1.68;68.20;102301.33;1836638;75;20906;-88
2022/11/29 23:31:14;;;;;;;8.33;5.15;;;;;;;-1.68;68.12;102300.04;1837771;77;21044;-84
2022/11/29 23:33:40;;;;;;;11.45;5.78;;;;;;;-1.71;68.04;102303.86;1835964;77;20902;-88
2022/11/29 23:36:08;;;;;;;10.98;5.05;;;;;;;-1.78;68.09;102295.98;1835260;78;21051;-86
2022/11/29 23:38:35;;;;;;;11.03;5.55;;;;;;;-1.82;68.13;102296.38;1835057;77;20883;-87
2022/11/29 23:41:01;;;;;;;11.65;5.33;;;;;;;-1.83;68.05;102301.05;1835267;77;20890;-88
2022/11/29 23:43:30;;;;;;;12.95;5.30;;;;;;;-1.84;67.97;102308.75;1835193;76;21211;-87
2022/11/29 23:45:56;;;;;;;10.35;4.83;;;;;;;-1.82;67.94;102309.62;1835213;76;20946;-87
2022/11/29 23:48:23;;;;;;;11.75;5.05;;;;;;;-1.80;67.86;102300.23;1835056;77;21301;-86
2022/11/29 23:50:50;;;;;;;13.50;5.20;;;;;;;-1.80;67.87;102291.23;1835184;78;20883;-86
2022/11/29 23:53:17;;;;;;;8.90;5.10;;;;;;;-1.79;67.84;102289.12;1835299;78;20978;-88
2022/11/29 23:55:46;;;;;;;9.43;4.72;;;;;;;-1.79;67.83;102292.98;1835178;77;21872;-87
2022/11/29 23:58:13;;;;;;;11.15;5.17;;;;;;;-1.82;67.57;102297.66;1835328;76;20851;-89
